Time;durP1;ratioP1;P1;durP2;ratioP2;P2;SDS_P1;SDS_P2;PMS_P1;PMS_P2;Temp;Humidity;BMP_temperature;BMP_pressure;BME280_temperature;BME280_humidity;BME280_pressure;Samples;Min_cycle;Max_cycle;Signal;HPM_P1;HPM_P2
2022/08/06 00:01:53;;;;;;;2.28;0.82;;;26.90;48.70;;;;;;5045514;28;20033;-39
2022/08/06 00:04:19;;;;;;;2.00;1.15;;;26.90;48.80;;;;;;5046287;28;20033;-44
2022/08/06 00:06:45;;;;;;;2.25;1.05;;;26.90;48.70;;;;;;5046018;28;20079;-39
2022/08/06 00:09:11;;;;;;;1.50;1.00;;;26.90;48.70;;;;;;5049546;28;20458;-38
2022/08/06 00:11:40;;;;;;;2.17;0.98;;;26.90;48.60;;;;;;5045297;28;20049;-39
2022/08/06 00:14:06;;;;;;;2.00;1.10;;;26.90;48.60;;;;;;5050759;28;20041;-38
2022/08/06 00:16:32;;;;;;;2.10;1.17;;;26.90;48.40;;;;;;5049575;28;20025;-39
2022/08/06 00:18:57;;;;;;;2.10;1.10;;;26.80;47.90;;;;;;5051027;28;20059;-39
2022/08/06 00:21:23;;;;;;;2.05;1.20;;;26.80;47.90;;;;;;5049964;28;20029;-40
2022/08/06 00:23:49;;;;;;;1.42;0.80;;;26.80;47.80;;;;;;5050986;28;20060;-39
2022/08/06 00:26:14;;;;;;;2.20;0.85;;;26.80;47.90;;;;;;5050893;28;20108;-40
2022/08/06 00:28:40;;;;;;;1.75;1.20;;;26.80;47.70;;;;;;5050048;28;20017;-38
2022/08/06 00:31:07;;;;;;;1.25;0.90;;;26.80;47.50;;;;;;5050713;28;20025;-39
2022/08/06 00:33:33;;;;;;;1.85;1.13;;;26.80;48.20;;;;;;5050013;28;20390;-39
2022/08/06 00:35:58;;;;;;;1.33;0.80;;;26.80;47.50;;;;;;5050845;28;20025;-39
2022/08/06 00:38:24;;;;;;;2.22;1.10;;;26.80;47.40;;;;;;5031669;28;20435;-40
2022/08/06 00:40:50;;;;;;;1.58;1.02;;;26.80;47.10;;;;;;5050702;28;20029;-39
2022/08/06 00:43:16;;;;;;;2.22;1.77;;;26.80;47.20;;;;;;5050799;28;20040;-39
2022/08/06 00:45:41;;;;;;;0.80;0.80;;;26.70;47.00;;;;;;5049703;28;20032;-38
2022/08/06 00:48:08;;;;;;;1.48;0.80;;;26.70;46.60;;;;;;5052762;28;20029;-39
2022/08/06 00:50:34;;;;;;;1.10;0.80;;;26.70;46.40;;;;;;5053277;28;20029;-39
2022/08/06 00:53:02;;;;;;;1.38;1.05;;;26.60;46.40;;;;;;5054137;28;20389;-39
2022/08/06 00:55:27;;;;;;;3.83;1.10;;;26.60;46.20;;;;;;5053296;28;20029;-39
2022/08/06 00:57:53;;;;;;;1.10;0.90;;;26.60;46.10;;;;;;5053961;28;20116;-39
2022/08/06 01:00:18;;;;;;;1.30;0.70;;;26.60;45.80;;;;;;5053676;28;20029;-41
2022/08/06 01:02:44;;;;;;;0.80;0.70;;;26.60;45.70;;;;;;5053668;28;20029;-38
2022/08/06 01:05:10;;;;;;;1.17;0.73;;;26.60;45.70;;;;;;5053983;28;20557;-38
2022/08/06 01:07:36;;;;;;;1.80;1.00;;;26.60;45.50;;;;;;5053311;28;20458;-39
2022/08/06 01:10:01;;;;;;;0.85;0.70;;;26.60;45.50;;;;;;5053878;28;20092;-39
2022/08/06 01:12:27;;;;;;;1.25;0.80;;;26.60;45.60;;;;;;5052630;28;20057;-39
2022/08/06 01:14:53;;;;;;;2.30;0.82;;;26.60;45.40;;;;;;5053966;28;20539;-39
2022/08/06 01:17:35;;;;;;;1.55;0.70;;;26.60;45.30;;;;;;5053946;28;20075;-44
2022/08/06 01:20:26;;;;;;;3.00;1.58;;;26.60;45.20;;;;;;5053621;28;20056;-38
2022/08/06 01:23:30;;;;;;;2.72;1.00;;;26.60;45.30;;;;;;5050450;28;20044;-39
2022/08/06 01:26:04;;;;;;;1.10;0.90;;;26.50;45.00;;;;;;5052873;28;20083;-39
2022/08/06 01:29:03;;;;;;;2.95;0.98;;;26.60;45.00;;;;;;5052904;28;20025;-38
2022/08/06 01:31:43;;;;;;;0.73;0.50;;;26.60;44.70;;;;;;5043320;28;20351;-39
2022/08/06 01:34:20;;;;;;;2.00;0.75;;;26.60;44.60;;;;;;5053424;28;20102;-39
2022/08/06 01:36:55;;;;;;;1.55;1.00;;;26.50;44.40;;;;;;5053370;28;20104;-39
2022/08/06 01:39:24;;;;;;;1.65;0.80;;;26.50;44.20;;;;;;5052345;28;20386;-43
2022/08/06 01:41:52;;;;;;;2.20;1.17;;;26.50;44.20;;;;;;5053538;28;20032;-39
2022/08/06 01:44:22;;;;;;;1.52;0.80;;;26.50;44.30;;;;;;5051868;28;20532;-39
2022/08/06 01:47:03;;;;;;;3.03;0.80;;;26.50;44.20;;;;;;5053309;28;20056;-39
2022/08/06 01:49:32;;;;;;;4.00;0.90;;;26.50;44.10;;;;;;5042601;28;20036;-39
2022/08/06 01:52:00;;;;;;;0.85;0.80;;;26.60;44.10;;;;;;5053620;28;20025;-39
2022/08/06 01:54:28;;;;;;;0.90;0.65;;;26.50;44.00;;;;;;5052186;28;20059;-39
2022/08/06 01:56:57;;;;;;;1.33;0.90;;;26.60;44.10;;;;;;5053031;28;20028;-39
2022/08/06 01:59:27;;;;;;;2.28;1.00;;;26.60;44.00;;;;;;5051316;28;20055;-42
2022/08/06 02:01:56;;;;;;;1.67;0.80;;;26.50;43.80;;;;;;5052929;28;20039;-39
2022/08/06 02:04:26;;;;;;;0.85;0.60;;;26.50;43.80;;;;;;5052337;28;20484;-42
2022/08/06 02:06:53;;;;;;;1.52;1.08;;;26.40;43.70;;;;;;5052639;28;20104;-39
2022/08/06 02:09:22;;;;;;;0.95;0.70;;;26.40;43.70;;;;;;5053001;28;20029;-41
2022/08/06 02:11:58;;;;;;;1.33;0.70;;;26.40;43.60;;;;;;5052285;28;20126;-39
2022/08/06 02:14:28;;;;;;;0.85;0.68;;;26.40;43.70;;;;;;5052031;28;20429;-39
2022/08/06 02:16:56;;;;;;;1.77;0.70;;;26.40;43.50;;;;;;5052625;28;20017;-39
2022/08/06 02:19:24;;;;;;;0.63;0.50;;;26.40;43.60;;;;;;5051754;28;20415;-42
2022/08/06 02:21:53;;;;;;;2.92;1.00;;;26.40;43.70;;;;;;5052794;28;20370;-39
2022/08/06 02:24:22;;;;;;;1.00;0.70;;;26.40;43.70;;;;;;5052180;28;20116;-42
2022/08/06 02:26:48;;;;;;;1.48;0.60;;;26.40;44.10;;;;;;5052251;28;20109;-39
2022/08/06 02:29:17;;;;;;;1.67;0.60;;;26.40;43.70;;;;;;5052850;28;20033;-40
2022/08/06 02:31:44;;;;;;;1.85;0.98;;;26.30;43.60;;;;;;5051522;28;20441;-39
2022/08/06 02:34:10;;;;;;;2.45;1.00;;;26.40;43.50;;;;;;5052461;28;20029;-39
2022/08/06 02:36:41;;;;;;;2.95;0.75;;;26.30;43.50;;;;;;5051205;28;20047;-38
2022/08/06 02:39:11;;;;;;;1.67;0.82;;;26.30;43.50;;;;;;5052156;28;20088;-39
2022/08/06 02:41:42;;;;;;;1.30;0.70;;;26.30;43.50;;;;;;5051527;28;20053;-39
2022/08/06 02:44:16;;;;;;;1.75;0.80;;;26.30;43.50;;;;;;5051795;28;20362;-38
2022/08/06 02:46:52;;;;;;;1.88;1.02;;;26.40;43.60;;;;;;5051274;28;20089;-39
2022/08/06 02:49:24;;;;;;;2.05;0.63;;;26.40;43.40;;;;;;5051663;28;20035;-39
2022/08/06 02:52:04;;;;;;;3.20;0.90;;;26.30;43.50;;;;;;5052067;28;20055;-39
2022/08/06 02:54:42;;;;;;;0.98;0.50;;;26.30;43.50;;;;;;5049756;28;20381;-39
2022/08/06 02:57:13;;;;;;;1.25;0.70;;;26.30;43.50;;;;;;5051868;28;20033;-38
2022/08/06 02:59:45;;;;;;;;;;;26.30;43.50;;;;;;5051698;28;20025;-39
2022/08/06 03:02:12;;;;;;;4.37;0.77;;;26.30;43.40;;;;;;5052026;28;19905;-38
2022/08/06 03:04:47;;;;;;;2.28;0.80;;;26.30;43.50;;;;;;5046189;28;20039;-39
2022/08/06 03:07:14;;;;;;;1.77;0.90;;;26.30;43.50;;;;;;5051222;28;20024;-39
2022/08/06 03:09:45;;;;;;;0.93;0.70;;;26.30;43.40;;;;;;5050961;28;20016;-39
2022/08/06 03:12:12;;;;;;;1.25;0.70;;;26.30;43.40;;;;;;5047179;28;20094;-39
2022/08/06 03:14:39;;;;;;;1.27;0.80;;;26.30;43.50;;;;;;5050757;28;20440;-38
2022/08/06 03:17:07;;;;;;;2.95;0.80;;;26.20;43.50;;;;;;5040287;28;20028;-39
2022/08/06 03:19:33;;;;;;;1.08;0.80;;;26.20;43.40;;;;;;5050944;28;20029;-40
2022/08/06 03:22:01;;;;;;;1.55;0.85;;;26.20;43.50;;;;;;5051538;28;20063;-39
2022/08/06 03:24:28;;;;;;;1.05;0.60;;;26.20;43.80;;;;;;5050255;28;20036;-40
2022/08/06 03:26:57;;;;;;;2.75;0.80;;;26.20;43.60;;;;;;5051525;28;20479;-39
2022/08/06 03:29:25;;;;;;;0.98;0.60;;;26.20;43.60;;;;;;5050695;28;20082;-44
2022/08/06 03:31:51;;;;;;;2.58;1.20;;;26.30;43.70;;;;;;5051837;28;20128;-39
2022/08/06 03:34:18;;;;;;;2.30;0.90;;;26.30;43.60;;;;;;5051073;28;20103;-40
2022/08/06 03:36:43;;;;;;;1.50;0.70;;;26.30;43.50;;;;;;5050453;28;20801;-39
2022/08/06 03:39:11;;;;;;;1.35;0.70;;;26.20;43.70;;;;;;5051272;28;20107;-39
2022/08/06 03:41:39;;;;;;;2.40;1.15;;;26.30;43.70;;;;;;5050680;28;20108;-40
2022/08/06 03:44:05;;;;;;;1.70;0.68;;;26.20;43.50;;;;;;5051204;28;20497;-39
2022/08/06 03:47:00;;;;;;;4.93;2.10;;;26.20;43.60;;;;;;5050312;28;20029;-39
2022/08/06 03:49:33;;;;;;;2.25;1.00;;;26.20;43.60;;;;;;5040349;28;20033;-39
2022/08/06 03:52:01;;;;;;;1.52;0.88;;;26.20;43.70;;;;;;5051256;28;20033;-39
2022/08/06 03:54:33;;;;;;;1.35;0.80;;;26.20;43.60;;;;;;5049919;28;20056;-40
2022/08/06 03:57:08;;;;;;;1.27;0.70;;;26.20;43.70;;;;;;5050758;28;20028;-39
2022/08/06 03:59:36;;;;;;;1.35;0.70;;;26.20;43.60;;;;;;5050496;28;20382;-39
2022/08/06 04:02:04;;;;;;;1.45;0.70;;;26.20;43.70;;;;;;5050776;28;20040;-39
2022/08/06 04:04:32;;;;;;;2.97;0.88;;;26.20;43.70;;;;;;5050130;28;20084;-39
2022/08/06 04:06:59;;;;;;;1.63;0.88;;;26.20;43.70;;;;;;5050789;28;20021;-39
2022/08/06 04:09:27;;;;;;;1.08;0.80;;;26.20;43.70;;;;;;5050385;28;20509;-39
2022/08/06 04:11:54;;;;;;;4.68;1.05;;;26.20;43.70;;;;;;5050446;28;20060;-39
2022/08/06 04:14:21;;;;;;;1.75;0.68;;;26.10;43.70;;;;;;5050617;28;20044;-45
2022/08/06 04:16:48;;;;;;;2.28;0.70;;;26.10;43.80;;;;;;5050662;28;20049;-39
2022/08/06 04:19:18;;;;;;;1.92;0.90;;;26.10;43.90;;;;;;5051174;28;20017;-39
2022/08/06 04:21:45;;;;;;;2.17;0.98;;;26.10;43.80;;;;;;5050308;28;20119;-39
2022/08/06 04:24:12;;;;;;;2.35;1.00;;;26.10;43.80;;;;;;5054512;28;20075;-39
2022/08/06 04:26:40;;;;;;;0.85;0.60;;;26.10;43.80;;;;;;5053800;28;20033;-39
2022/08/06 04:29:08;;;;;;;1.95;0.82;;;26.10;43.80;;;;;;5054718;28;20059;-39
2022/08/06 04:31:35;;;;;;;3.22;1.13;;;26.10;44.00;;;;;;5053760;28;20108;-39
2022/08/06 04:34:01;;;;;;;1.13;0.90;;;26.10;43.90;;;;;;5054789;28;20040;-39
2022/08/06 04:36:28;;;;;;;1.15;0.68;;;26.10;43.90;;;;;;5053789;28;20389;-39
2022/08/06 04:38:54;;;;;;;1.35;0.95;;;26.10;44.00;;;;;;5054202;28;20021;-39
2022/08/06 04:41:21;;;;;;;0.93;0.65;;;26.10;44.10;;;;;;5054305;28;20021;-42
2022/08/06 04:43:47;;;;;;;0.73;0.57;;;26.10;44.10;;;;;;5053482;28;20036;-40
2022/08/06 04:46:13;;;;;;;0.80;0.70;;;26.10;44.00;;;;;;5054658;28;20488;-39
2022/08/06 04:48:39;;;;;;;1.13;0.63;;;26.10;44.10;;;;;;5053056;28;20569;-39
2022/08/06 04:51:05;;;;;;;5.57;1.08;;;26.10;44.00;;;;;;5054610;28;20025;-39
2022/08/06 04:53:40;;;;;;;1.55;0.70;;;26.20;44.10;;;;;;5053546;28;20033;-39
2022/08/06 04:56:06;;;;;;;2.28;0.60;;;26.20;44.10;;;;;;5054563;28;20021;-39
2022/08/06 04:58:33;;;;;;;3.35;0.80;;;26.10;44.10;;;;;;5054012;28;20028;-39
2022/08/06 05:00:59;;;;;;;1.52;0.70;;;26.10;44.20;;;;;;5054325;28;20033;-39
2022/08/06 05:03:25;;;;;;;4.18;0.80;;;26.10;44.10;;;;;;5053099;28;20114;-39
2022/08/06 05:06:00;;;;;;;1.52;0.70;;;26.00;44.20;;;;;;5054012;28;20064;-39
2022/08/06 05:08:30;;;;;;;2.75;0.82;;;26.00;44.20;;;;;;5053125;28;20028;-39
2022/08/06 05:11:21;;;;;;;1.23;0.75;;;26.00;44.20;;;;;;5053814;28;20051;-39
2022/08/06 05:14:07;;;;;;;1.90;0.70;;;26.10;44.30;;;;;;5046152;28;20032;-41
2022/08/06 05:16:36;;;;;;;1.73;0.80;;;26.00;44.20;;;;;;5053108;28;20370;-39
2022/08/06 05:19:05;;;;;;;1.00;0.60;;;26.10;44.30;;;;;;5053984;28;20029;-39
2022/08/06 05:21:36;;;;;;;1.60;0.80;;;26.00;44.40;;;;;;5053190;28;20532;-39
2022/08/06 05:24:02;;;;;;;1.95;0.85;;;26.00;44.40;;;;;;5048402;28;20036;-39
2022/08/06 05:26:28;;;;;;;1.35;0.75;;;26.00;44.40;;;;;;5052567;28;20025;-39
2022/08/06 05:28:54;;;;;;;1.92;0.73;;;26.00;44.50;;;;;;5053723;28;20103;-41
2022/08/06 05:31:31;;;;;;;2.88;1.02;;;26.00;44.50;;;;;;5053344;28;20108;-43
2022/08/06 05:33:57;;;;;;;3.67;1.52;;;26.00;44.50;;;;;;5052256;28;20059;-39
2022/08/06 05:36:22;;;;;;;1.40;0.70;;;26.00;44.50;;;;;;5052942;28;20029;-42
2022/08/06 05:38:48;;;;;;;2.00;0.80;;;26.00;44.60;;;;;;5053144;28;20048;-39
2022/08/06 05:41:14;;;;;;;2.03;0.82;;;26.00;44.60;;;;;;5053532;28;20099;-39
2022/08/06 05:43:40;;;;;;;1.40;0.70;;;25.90;44.60;;;;;;5052784;28;20040;-39
2022/08/06 05:46:29;;;;;;;1.75;0.70;;;25.90;44.70;;;;;;5052770;28;20028;-39
2022/08/06 05:49:04;;;;;;;2.38;0.75;;;26.00;44.80;;;;;;5035755;28;20025;-39
2022/08/06 05:51:53;;;;;;;2.30;0.88;;;26.00;44.70;;;;;;5052366;28;20489;-39
2022/08/06 05:54:46;;;;;;;1.38;0.85;;;26.00;44.80;;;;;;5041621;28;20047;-42
2022/08/06 05:57:40;;;;;;;3.35;1.00;;;26.00;44.80;;;;;;5053113;28;20103;-39
2022/08/06 06:00:10;;;;;;;2.88;0.90;;;26.00;44.80;;;;;;5052940;28;20401;-39
2022/08/06 06:02:40;;;;;;;2.00;1.10;;;26.00;44.90;;;;;;5052148;28;20367;-39
2022/08/06 06:05:07;;;;;;;2.40;0.80;;;26.00;44.90;;;;;;5052720;28;20037;-39
2022/08/06 06:07:33;;;;;;;2.78;1.35;;;26.00;45.00;;;;;;5052269;28;20374;-39
2022/08/06 06:10:02;;;;;;;1.10;0.85;;;26.00;45.00;;;;;;5052966;28;20025;-39
2022/08/06 06:12:30;;;;;;;2.55;1.30;;;26.00;45.00;;;;;;5051420;28;20127;-40
2022/08/06 06:14:56;;;;;;;1.35;0.70;;;25.90;45.10;;;;;;5052186;28;20033;-39
2022/08/06 06:17:43;;;;;;;1.45;0.90;;;25.90;45.10;;;;;;5052417;28;20025;-42
2022/08/06 06:20:30;;;;;;;1.92;0.65;;;26.00;45.20;;;;;;5052830;28;20048;-39
2022/08/06 06:23:15;;;;;;;5.60;0.80;;;26.00;44.60;;;;;;5048563;28;20051;-40
2022/08/06 06:25:59;;;;;;;2.40;1.23;;;26.00;45.20;;;;;;5051776;28;20022;-39
2022/08/06 06:28:44;;;;;;;2.80;0.75;;;26.00;45.30;;;;;;5051535;28;20025;-40
2022/08/06 06:31:24;;;;;;;1.65;0.70;;;26.00;45.40;;;;;;5052473;28;20029;-39
2022/08/06 06:33:50;;;;;;;4.75;1.20;;;25.90;45.20;;;;;;5052490;28;20068;-40
2022/08/06 06:36:30;;;;;;;1.25;0.80;;;25.90;45.40;;;;;;5034560;28;20060;-39
2022/08/06 06:39:18;;;;;;;2.67;0.80;;;25.90;45.30;;;;;;5046893;28;20255;-39
2022/08/06 06:42:07;;;;;;;2.58;1.02;;;25.80;45.40;;;;;;5052152;28;20056;-39
2022/08/06 06:44:50;;;;;;;1.73;0.70;;;25.80;45.40;;;;;;5049496;28;20445;-39
2022/08/06 06:47:23;;;;;;;2.35;0.77;;;25.70;45.30;;;;;;5048804;28;20410;-39
2022/08/06 06:49:56;;;;;;;1.05;0.75;;;25.70;45.60;;;;;;5052168;28;20036;-39
2022/08/06 06:52:26;;;;;;;0.95;0.73;;;25.70;45.50;;;;;;5051471;28;20025;-43
2022/08/06 06:54:57;;;;;;;1.42;0.77;;;25.80;45.60;;;;;;5052117;28;20025;-39
2022/08/06 06:57:31;;;;;;;2.00;1.50;;;25.80;45.50;;;;;;5050100;28;20029;-43
2022/08/06 07:00:00;;;;;;;2.47;0.90;;;25.80;45.60;;;;;;5051512;28;20495;-39
2022/08/06 07:02:29;;;;;;;1.83;0.90;;;25.80;45.60;;;;;;5048750;28;20021;-39
2022/08/06 07:04:56;;;;;;;2.03;1.02;;;25.60;45.70;;;;;;5047549;28;20496;-39
2022/08/06 07:07:23;;;;;;;1.30;0.70;;;25.60;45.70;;;;;;5033502;28;20025;-42
2022/08/06 07:09:50;;;;;;;2.22;1.02;;;25.80;45.80;;;;;;5051813;28;20029;-40
2022/08/06 07:12:18;;;;;;;2.40;1.00;;;25.80;46.00;;;;;;5039031;28;20413;-44
2022/08/06 07:14:45;;;;;;;1.30;0.80;;;25.80;45.80;;;;;;5048932;28;20082;-39
2022/08/06 07:17:12;;;;;;;2.47;1.42;;;25.80;45.90;;;;;;5038431;28;20359;-39
2022/08/06 07:19:38;;;;;;;1.92;1.25;;;25.80;45.80;;;;;;5047006;28;20040;-39
2022/08/06 07:22:05;;;;;;;1.40;0.90;;;25.80;45.80;;;;;;5047141;28;20041;-39
2022/08/06 07:24:33;;;;;;;1.98;1.13;;;25.90;45.80;;;;;;5049124;28;20037;-39
2022/08/06 07:27:00;;;;;;;0.95;0.73;;;26.00;46.00;;;;;;5039311;28;20052;-39
2022/08/06 07:29:27;;;;;;;1.30;0.80;;;26.00;46.00;;;;;;5049282;28;20039;-40
2022/08/06 07:31:55;;;;;;;3.35;1.60;;;26.00;45.80;;;;;;5052119;28;20024;-39
2022/08/06 07:34:22;;;;;;;0.60;0.60;;;26.10;45.70;;;;;;5052275;28;20029;-46
2022/08/06 07:36:52;;;;;;;2.47;0.98;;;26.20;45.50;;;;;;5049504;28;20037;-40
2022/08/06 07:39:24;;;;;;;1.40;0.70;;;26.30;45.50;;;;;;5049705;28;20033;-41
2022/08/06 07:41:52;;;;;;;1.42;0.80;;;26.30;45.30;;;;;;5049626;28;20036;-40
2022/08/06 07:44:21;;;;;;;2.67;0.80;;;26.40;45.20;;;;;;5049869;28;20045;-39
2022/08/06 07:46:50;;;;;;;1.30;0.65;;;26.40;45.10;;;;;;5050269;28;20025;-39
2022/08/06 07:49:19;;;;;;;2.70;0.80;;;26.40;45.00;;;;;;5050179;28;20036;-39
2022/08/06 07:51:46;;;;;;;1.20;0.82;;;26.50;45.10;;;;;;5049482;28;20021;-39
2022/08/06 07:54:14;;;;;;;2.25;0.95;;;26.50;44.90;;;;;;5031448;28;20429;-39
2022/08/06 07:56:42;;;;;;;0.80;0.60;;;26.60;44.80;;;;;;5049116;28;20668;-43
2022/08/06 07:59:09;;;;;;;0.95;0.70;;;26.60;45.00;;;;;;5053792;28;20059;-43
2022/08/06 08:01:36;;;;;;;1.70;0.88;;;26.70;44.80;;;;;;5054046;28;20425;-39
2022/08/06 08:06:52;;;;;;;1.35;1.20;;;26.60;44.80;;;;;;5054120;28;20532;-40
2022/08/06 08:09:21;;;;;;;1.33;0.63;;;26.60;44.60;;;;;;5047312;28;20055;-42
2022/08/06 08:11:48;;;;;;;1.42;1.00;;;26.50;44.70;;;;;;5053258;28;20505;-41
2022/08/06 08:14:18;;;;;;;1.08;0.90;;;26.50;44.60;;;;;;5054269;28;20037;-40
2022/08/06 08:16:44;;;;;;;1.67;1.13;;;26.50;44.80;;;;;;5046040;28;20516;-40
2022/08/06 08:19:31;;;;;;;2.35;0.80;;;26.40;44.30;;;;;;5053819;28;20036;-39
2022/08/06 08:22:02;;;;;;;1.23;0.90;;;26.30;44.10;;;;;;5053646;28;20021;-39
2022/08/06 08:24:31;;;;;;;1.42;0.70;;;26.30;44.30;;;;;;5054334;28;20054;-39
2022/08/06 08:26:57;;;;;;;2.95;1.20;;;26.20;44.60;;;;;;5056378;28;20040;-39
2022/08/06 08:29:22;;;;;;;1.85;0.80;;;26.20;44.30;;;;;;5054052;28;20462;-43
2022/08/06 08:31:48;;;;;;;1.15;1.00;;;26.10;44.40;;;;;;5054651;28;20029;-40
2022/08/06 08:34:14;;;;;;;3.60;1.20;;;26.00;44.50;;;;;;5054173;28;20033;-40
2022/08/06 08:36:40;;;;;;;1.92;0.90;;;26.10;44.50;;;;;;5054056;28;20591;-40
2022/08/06 08:39:06;;;;;;;4.00;1.45;;;26.10;44.50;;;;;;5050779;28;20025;-40
2022/08/06 08:41:44;;;;;;;1.45;0.98;;;26.30;44.40;;;;;;5053675;28;20032;-40
2022/08/06 08:44:11;;;;;;;1.90;1.25;;;26.30;44.30;;;;;;5053476;28;20094;-40
2022/08/06 08:46:43;;;;;;;3.08;1.95;;;26.20;44.70;;;;;;5052807;28;20029;-42
2022/08/06 08:49:19;;;;;;;1.65;1.30;;;26.30;44.30;;;;;;5041757;28;20031;-38
2022/08/06 08:51:45;;;;;;;2.50;1.30;;;26.40;44.00;;;;;;5053897;28;20025;-40
2022/08/06 08:54:15;;;;;;;5.00;1.30;;;26.30;43.90;;;;;;5054082;28;20386;-40
2022/08/06 08:56:42;;;;;;;2.40;0.98;;;26.00;45.00;;;;;;5048902;28;20020;-39
2022/08/06 08:59:08;;;;;;;1.70;1.20;;;25.80;44.90;;;;;;5054396;28;20021;-39
2022/08/06 09:01:35;;;;;;;1.60;1.00;;;25.60;45.20;;;;;;5053134;28;20378;-39
2022/08/06 09:04:04;;;;;;;3.03;1.27;;;25.60;45.80;;;;;;5053940;28;20029;-39
2022/08/06 09:06:32;;;;;;;1.85;0.95;;;25.60;45.50;;;;;;5053039;28;20036;-39
2022/08/06 09:09:03;;;;;;;1.40;1.02;;;25.70;46.20;;;;;;5057184;28;20150;-42
2022/08/06 09:11:30;;;;;;;1.17;0.95;;;25.60;45.60;;;;;;5057555;28;20079;-43
2022/08/06 09:13:55;;;;;;;2.05;0.73;;;25.50;45.70;;;;;;5055498;28;20078;-43
2022/08/06 09:16:21;;;;;;;3.08;1.02;;;25.50;45.70;;;;;;5059327;28;20033;-53
2022/08/06 09:18:47;;;;;;;2.17;1.55;;;25.50;45.70;;;;;;5050941;28;20035;-44
2022/08/06 09:21:13;;;;;;;0.98;0.80;;;25.40;45.50;;;;;;5055967;28;20028;-43
2022/08/06 09:23:39;;;;;;;2.10;1.13;;;25.40;45.40;;;;;;5053045;28;20739;-43
2022/08/06 09:26:06;;;;;;;1.92;1.00;;;25.50;45.60;;;;;;5053492;28;20032;-43
2022/08/06 09:28:36;;;;;;;2.42;1.02;;;25.60;45.10;;;;;;5052465;28;20029;-46
2022/08/06 09:31:20;;;;;;;3.10;1.27;;;25.50;45.40;;;;;;5052646;28;20494;-46
2022/08/06 09:34:18;;;;;;;2.08;1.05;;;25.60;45.20;;;;;;5052592;28;20025;-44
2022/08/06 09:36:45;;;;;;;4.63;1.10;;;25.60;45.30;;;;;;5050384;28;20085;-44
2022/08/06 09:39:11;;;;;;;2.15;0.93;;;25.40;45.00;;;;;;5052906;28;20104;-44
2022/08/06 09:41:47;;;;;;;4.65;1.20;;;25.40;45.40;;;;;;5052223;28;20179;-44
2022/08/06 09:44:14;;;;;;;3.83;1.60;;;25.50;45.50;;;;;;5049935;28;20029;-46
2022/08/06 09:46:42;;;;;;;5.55;1.80;;;25.60;46.20;;;;;;5052200;28;20029;-44
2022/08/06 09:49:10;;;;;;;3.30;1.20;;;25.60;46.20;;;;;;5053091;28;20028;-43
2022/08/06 09:51:37;;;;;;;3.38;1.20;;;25.60;46.10;;;;;;5051806;28;20040;-43
2022/08/06 09:54:05;;;;;;;4.22;1.55;;;25.60;45.10;;;;;;5041149;28;20151;-43
2022/08/06 09:56:32;;;;;;;1.95;1.25;;;25.60;44.90;;;;;;5051859;28;20025;-44
2022/08/06 09:58:59;;;;;;;3.17;1.73;;;25.60;44.40;;;;;;5052356;28;20029;-43
2022/08/06 10:01:26;;;;;;;1.80;1.17;;;25.60;44.30;;;;;;5051821;28;20033;-44
2022/08/06 10:03:54;;;;;;;1.75;1.10;;;25.60;44.50;;;;;;5052030;28;20431;-45
2022/08/06 10:06:20;;;;;;;2.65;1.13;;;25.60;44.30;;;;;;5052184;28;20025;-53
2022/08/06 10:09:03;;;;;;;1.45;1.10;;;25.60;44.00;;;;;;5051772;28;20079;-46
2022/08/06 10:11:33;;;;;;;3.40;1.27;;;25.70;44.70;;;;;;5045002;28;20136;-45
2022/08/06 10:13:59;;;;;;;4.38;1.20;;;25.70;44.00;;;;;;5052444;28;20056;-46
2022/08/06 10:16:29;;;;;;;3.00;1.45;;;25.60;44.10;;;;;;5051532;28;20029;-44
2022/08/06 10:18:57;;;;;;;3.05;1.00;;;25.60;44.20;;;;;;5053016;28;20033;-43
2022/08/06 10:21:28;;;;;;;2.05;0.90;;;25.60;44.30;;;;;;5050582;28;20497;-51
2022/08/06 10:23:59;;;;;;;2.33;0.93;;;25.50;44.10;;;;;;5052677;28;20095;-43
2022/08/06 10:26:28;;;;;;;1.65;0.80;;;25.50;44.30;;;;;;5051190;28;20377;-45
2022/08/06 10:28:54;;;;;;;1.67;0.85;;;25.40;44.20;;;;;;5052510;28;20347;-44
2022/08/06 10:31:20;;;;;;;1.45;1.35;;;25.50;44.50;;;;;;5052334;28;20462;-53
2022/08/06 10:33:46;;;;;;;1.85;1.13;;;25.50;44.00;;;;;;5052012;28;20032;-43
2022/08/06 10:36:15;;;;;;;3.17;0.90;;;25.50;44.30;;;;;;5052303;28;20029;-45
2022/08/06 10:38:44;;;;;;;2.33;0.88;;;25.50;44.20;;;;;;5051332;28;20434;-44
2022/08/06 10:41:12;;;;;;;2.10;0.90;;;25.60;44.30;;;;;;5052389;28;20032;-43
2022/08/06 10:43:39;;;;;;;3.53;1.10;;;25.60;43.80;;;;;;5051927;28;20108;-43
2022/08/06 10:46:12;;;;;;;3.38;1.30;;;25.70;43.70;;;;;;5053619;28;20040;-45
2022/08/06 10:48:40;;;;;;;1.83;1.00;;;25.60;43.70;;;;;;5051227;28;20032;-44
2022/08/06 10:51:09;;;;;;;1.80;1.20;;;25.60;43.90;;;;;;5051549;28;20048;-43
2022/08/06 10:53:44;;;;;;;3.05;0.95;;;25.60;44.10;;;;;;5050474;28;20072;-44
2022/08/06 10:56:12;;;;;;;1.90;1.20;;;25.60;44.00;;;;;;5051901;28;20033;-44
2022/08/06 10:58:39;;;;;;;1.13;0.90;;;25.60;44.00;;;;;;5050390;28;20029;-43
2022/08/06 11:01:18;;;;;;;1.33;0.90;;;25.60;43.60;;;;;;5051564;28;20029;-43
2022/08/06 11:04:02;;;;;;;3.45;1.00;;;25.60;43.70;;;;;;5050514;28;20470;-44
2022/08/06 11:06:37;;;;;;;2.33;0.98;;;25.70;43.80;;;;;;5050746;28;20071;-43
2022/08/06 11:09:24;;;;;;;2.90;0.90;;;25.70;43.70;;;;;;5044687;28;20099;-43
2022/08/06 11:11:53;;;;;;;1.60;1.08;;;25.70;43.80;;;;;;5048403;28;20049;-44
2022/08/06 11:14:20;;;;;;;2.13;1.42;;;25.70;43.40;;;;;;5051404;28;20029;-44
2022/08/06 11:16:56;;;;;;;2.70;1.13;;;25.60;43.00;;;;;;5050621;28;20029;-43
2022/08/06 11:19:38;;;;;;;1.20;0.82;;;25.60;43.00;;;;;;5050541;28;20112;-53
2022/08/06 11:22:05;;;;;;;1.15;0.73;;;25.70;43.10;;;;;;5046035;28;20025;-43
2022/08/06 11:24:31;;;;;;;2.90;1.00;;;25.70;43.00;;;;;;5050129;28;20456;-43
2022/08/06 11:26:57;;;;;;;1.70;0.90;;;25.70;43.00;;;;;;5033234;28;20143;-43
2022/08/06 11:29:23;;;;;;;1.75;0.90;;;25.80;42.80;;;;;;5050368;28;20059;-52
2022/08/06 11:31:50;;;;;;;3.45;1.23;;;25.80;42.60;;;;;;5051166;28;20040;-50
2022/08/06 11:34:20;;;;;;;3.67;1.23;;;25.70;42.30;;;;;;5050801;28;20072;-47
2022/08/06 11:36:50;;;;;;;1.20;0.80;;;25.70;42.20;;;;;;5050492;28;20024;-44
2022/08/06 11:39:20;;;;;;;2.33;0.80;;;25.80;42.20;;;;;;5050967;28;20024;-43
2022/08/06 11:42:08;;;;;;;3.20;1.10;;;25.80;42.50;;;;;;5050786;28;20025;-43
2022/08/06 11:44:37;;;;;;;1.83;0.93;;;25.80;42.50;;;;;;5049252;28;20032;-43
2022/08/06 11:47:07;;;;;;;1.98;0.90;;;25.90;42.60;;;;;;5051301;28;20135;-44
2022/08/06 11:49:47;;;;;;;3.13;1.30;;;25.90;42.80;;;;;;5050354;28;20489;-43
2022/08/06 11:52:30;;;;;;;2.45;0.93;;;25.80;42.50;;;;;;5051020;28;20538;-43
2022/08/06 11:55:02;;;;;;;4.72;1.40;;;25.90;42.50;;;;;;5050312;28;20084;-43
2022/08/06 11:57:27;;;;;;;2.88;1.20;;;26.00;42.80;;;;;;5050364;28;20116;-43
2022/08/06 11:59:56;;;;;;;2.45;1.20;;;26.00;43.00;;;;;;5031276;28;20444;-43
2022/08/06 12:02:41;;;;;;;2.70;1.08;;;25.90;42.60;;;;;;5049610;28;20382;-52
2022/08/06 12:05:13;;;;;;;2.83;0.90;;;26.00;42.90;;;;;;5047569;28;20041;-45
2022/08/06 12:07:38;;;;;;;3.13;1.20;;;26.00;42.90;;;;;;5044177;28;20028;-43
2022/08/06 12:10:11;;;;;;;2.45;1.45;;;25.90;42.60;;;;;;5050499;28;20033;-45
2022/08/06 12:12:43;;;;;;;9.57;3.95;;;25.90;42.50;;;;;;5049675;28;20156;-43
2022/08/06 12:15:11;;;;;;;3.85;1.50;;;26.00;42.50;;;;;;5057045;28;20036;-44
2022/08/06 12:17:39;;;;;;;6.00;1.92;;;26.00;42.40;;;;;;5050172;28;20039;-44
2022/08/06 12:20:06;;;;;;;7.50;2.00;;;26.00;42.60;;;;;;5050615;28;20025;-43
2022/08/06 12:22:35;;;;;;;6.75;1.80;;;26.10;42.50;;;;;;5050556;28;20065;-44
2022/08/06 12:25:08;;;;;;;3.22;1.30;;;26.10;42.60;;;;;;5050237;28;20120;-44
2022/08/06 12:27:35;;;;;;;3.75;1.58;;;26.20;42.70;;;;;;5050180;28;20029;-44
2022/08/06 12:30:03;;;;;;;3.55;1.40;;;26.30;42.60;;;;;;5050490;28;20029;-44
2022/08/06 12:32:33;;;;;;;4.65;1.55;;;26.30;42.80;;;;;;5049750;28;20025;-43
2022/08/06 12:35:03;;;;;;;5.93;1.10;;;26.30;42.80;;;;;;5041505;28;20032;-43
2022/08/06 12:37:48;;;;;;;5.65;2.15;;;26.40;42.80;;;;;;5049769;28;20031;-43
2022/08/06 12:40:28;;;;;;;2.67;1.17;;;26.40;43.00;;;;;;5049160;28;20053;-46
2022/08/06 12:43:02;;;;;;;5.22;1.10;;;26.40;43.00;;;;;;5054472;28;20028;-43
2022/08/06 12:45:30;;;;;;;2.85;0.98;;;26.40;42.90;;;;;;5054977;28;20060;-45
2022/08/06 12:48:00;;;;;;;1.27;1.00;;;26.40;42.80;;;;;;5054763;28;20525;-44
2022/08/06 12:50:28;;;;;;;3.60;1.05;;;26.30;42.80;;;;;;5053594;28;20036;-44
2022/08/06 12:53:11;;;;;;;1.90;1.00;;;26.40;42.80;;;;;;5036630;28;20032;-44
2022/08/06 12:55:52;;;;;;;2.42;0.98;;;26.50;42.70;;;;;;5050232;28;20466;-43
2022/08/06 12:58:21;;;;;;;2.70;0.95;;;26.40;42.60;;;;;;5052262;28;20049;-44
2022/08/06 13:00:50;;;;;;;1.90;1.10;;;26.50;42.70;;;;;;5053843;28;20040;-44
2022/08/06 13:03:18;;;;;;;1.60;1.00;;;26.50;42.70;;;;;;5053121;28;20462;-43
2022/08/06 13:05:44;;;;;;;2.75;1.00;;;26.50;42.60;;;;;;5052576;28;20037;-43
2022/08/06 13:08:11;;;;;;;1.25;0.90;;;26.50;42.80;;;;;;5053695;28;20437;-43